createdAt,value
2019-03-28T00:01:55.824Z,102175.83
2019-03-28T00:04:28.176Z,102183.20
2019-03-28T00:07:00.495Z,102178.69
2019-03-28T00:09:32.837Z,102187.75
2019-03-28T00:12:05.098Z,102184.89
2019-03-28T00:14:37.417Z,102180.47
2019-03-28T00:17:09.742Z,102178.59
2019-03-28T00:19:42.044Z,102181.73
2019-03-28T00:22:18.798Z,102180.27
2019-03-28T00:24:57.082Z,102178.84
2019-03-28T00:27:29.348Z,102183.41
2019-03-28T00:30:01.665Z,102180.73
2019-03-28T00:32:33.996Z,102177.82
2019-03-28T00:35:06.392Z,102176.75
2019-03-28T00:37:38.611Z,102174.28
2019-03-28T00:40:11.084Z,102165.50
2019-03-28T00:42:43.286Z,102167.17
2019-03-28T00:45:15.410Z,102167.62
2019-03-28T00:47:47.562Z,102168.64
2019-03-28T00:50:19.810Z,102165.22
2019-03-28T00:52:52.042Z,102159.66
2019-03-28T00:55:24.188Z,102166.41
2019-03-28T00:57:56.413Z,102170.17
2019-03-28T01:00:28.550Z,102170.38
2019-03-28T01:03:00.771Z,102170.38
2019-03-28T01:05:32.983Z,102165.27
2019-03-28T01:08:05.203Z,102174.66
2019-03-28T01:10:37.348Z,102171.72
2019-03-28T01:13:09.577Z,102172.37
2019-03-28T01:15:41.792Z,102181.77
2019-03-28T01:18:14.021Z,102174.61
2019-03-28T01:20:46.168Z,102179.81
2019-03-28T01:23:18.332Z,102171.72
2019-03-28T01:25:50.823Z,102174.56
2019-03-28T01:28:23.321Z,102176.30
2019-03-28T01:30:56.463Z,102170.86
2019-03-28T01:33:28.705Z,102176.14
2019-03-28T01:36:00.853Z,102171.27
2019-03-28T01:38:33.109Z,102177.36
2019-03-28T01:41:05.265Z,102172.69
2019-03-28T01:43:37.523Z,102172.69
2019-03-28T01:46:09.667Z,102165.17
2019-03-28T01:48:41.897Z,102173.88
2019-03-28T01:51:14.055Z,102164.41
2019-03-28T01:53:46.204Z,102159.66
2019-03-28T01:56:18.366Z,102156.57
2019-03-28T01:58:50.847Z,102165.02
2019-03-28T02:01:23.313Z,102164.73
2019-03-28T02:03:55.530Z,102165.39
2019-03-28T02:06:27.739Z,102165.27
2019-03-28T02:08:59.967Z,102165.87
2019-03-28T02:11:32.176Z,102174.33
2019-03-28T02:14:04.381Z,102169.57
2019-03-28T02:16:36.608Z,102175.95
2019-03-28T02:19:08.831Z,102168.64
2019-03-28T02:21:41.124Z,102169.77
2019-03-28T02:24:13.352Z,102164.25
2019-03-28T02:26:45.562Z,102161.04
2019-03-28T02:29:17.718Z,102159.53
2019-03-28T02:31:50.268Z,102160.59
2019-03-28T02:34:22.486Z,102154.30
2019-03-28T02:36:54.687Z,102158.77
2019-03-28T02:39:26.915Z,102151.53
2019-03-28T02:41:59.125Z,102147.59
2019-03-28T02:44:31.252Z,102144.42
2019-03-28T02:47:03.481Z,102140.88
2019-03-28T02:49:35.710Z,102148.52
2019-03-28T02:52:07.923Z,102139.92
2019-03-28T02:54:40.061Z,102143.13
2019-03-28T02:57:12.216Z,102145.08
2019-03-28T02:59:44.420Z,102148.63
2019-03-28T03:02:16.658Z,102140.17
2019-03-28T03:04:48.870Z,102152.36
2019-03-28T03:07:21.471Z,102151.17
2019-03-28T03:09:53.958Z,102153.45
2019-03-28T03:12:26.230Z,102157.15
2019-03-28T03:14:58.464Z,102167.22
2019-03-28T03:17:30.665Z,102166.56
2019-03-28T03:20:02.801Z,102158.97
2019-03-28T03:22:35.010Z,102159.86
2019-03-28T03:25:07.752Z,102167.70
2019-03-28T03:27:56.212Z,102166.89
2019-03-28T03:30:14.473Z,102163.40
2019-03-28T03:32:46.705Z,102168.36
2019-03-28T03:35:20.293Z,102169.70
2019-03-28T03:37:52.440Z,102172.09
2019-03-28T03:40:24.601Z,102177.34
2019-03-28T03:42:57.160Z,102181.64
2019-03-28T03:45:29.419Z,102180.09
2019-03-28T03:48:01.668Z,102176.80
2019-03-28T03:50:33.808Z,102185.05
2019-03-28T03:53:06.037Z,102186.31
2019-03-28T03:55:38.179Z,102188.95
2019-03-28T03:58:16.206Z,102184.12
2019-03-28T04:00:44.376Z,102195.89
2019-03-28T04:03:16.661Z,102190.52
2019-03-28T04:05:48.918Z,102184.06
2019-03-28T04:08:21.596Z,102183.25
2019-03-28T04:10:54.094Z,102187.28
2019-03-28T04:13:26.395Z,102182.07
2019-03-28T04:15:59.129Z,102188.22
2019-03-28T04:18:31.451Z,102183.08
2019-03-28T04:21:03.791Z,102184.89
2019-03-28T04:23:36.076Z,102179.53
2019-03-28T04:26:09.492Z,102187.25
2019-03-28T04:28:41.813Z,102180.19
2019-03-28T04:31:14.153Z,102178.05
2019-03-28T04:33:46.479Z,102183.75
2019-03-28T04:36:18.788Z,102180.11
2019-03-28T04:38:52.388Z,102191.34
2019-03-28T04:41:24.798Z,102192.23
2019-03-28T04:43:57.185Z,102197.88
2019-03-28T04:46:29.493Z,102198.77
2019-03-28T04:49:01.882Z,102199.04
2019-03-28T04:51:34.130Z,102206.05
2019-03-28T04:54:09.610Z,102210.13
2019-03-28T04:56:40.410Z,102215.00
2019-03-28T04:59:12.800Z,102214.11
2019-03-28T05:01:59.423Z,102213.75
2019-03-28T05:04:21.053Z,102219.34
2019-03-28T05:06:53.282Z,102214.28
2019-03-28T05:09:25.519Z,102216.16
2019-03-28T05:11:57.839Z,102218.30
2019-03-28T05:14:30.166Z,102218.76
2019-03-28T05:17:02.420Z,102227.42
2019-03-28T05:19:34.793Z,102222.66
2019-03-28T05:22:07.149Z,102223.80
2019-03-28T05:24:39.389Z,102226.28
2019-03-28T05:27:11.626Z,102228.46
2019-03-28T05:29:43.889Z,102230.56
2019-03-28T05:32:16.215Z,102225.06
2019-03-28T05:34:48.465Z,102234.58
2019-03-28T05:37:21.506Z,102235.72
2019-03-28T05:39:54.030Z,102237.34
2019-03-28T05:42:26.363Z,102237.89
2019-03-28T05:44:58.632Z,102242.37
2019-03-28T05:47:31.013Z,102248.80
2019-03-28T05:50:03.339Z,102254.17
2019-03-28T05:52:35.611Z,102261.95
2019-03-28T05:55:07.854Z,102262.88
2019-03-28T05:57:40.026Z,102267.14
2019-03-28T06:00:12.160Z,102268.53
2019-03-28T06:02:44.394Z,102276.86
2019-03-28T06:05:16.591Z,102280.50
2019-03-28T06:07:48.722Z,102285.33
2019-03-28T06:10:21.032Z,102287.28
2019-03-28T06:12:53.256Z,102286.41
2019-03-28T06:15:25.399Z,102281.30
2019-03-28T06:17:57.533Z,102288.36
2019-03-28T06:20:30.199Z,102289.45
2019-03-28T06:23:02.410Z,102286.95
2019-03-28T06:25:34.638Z,102282.19
2019-03-28T06:28:06.871Z,102281.99
2019-03-28T06:30:39.014Z,102284.92
2019-03-28T06:33:11.219Z,102294.27
2019-03-28T06:35:43.461Z,102303.60
2019-03-28T06:38:15.672Z,102304.63
2019-03-28T06:40:47.814Z,102302.79
2019-03-28T06:43:20.363Z,102307.30
2019-03-28T06:45:52.511Z,102304.00
2019-03-28T06:48:24.678Z,102300.78
2019-03-28T06:50:56.842Z,102306.83
2019-03-28T06:53:28.980Z,102313.42
2019-03-28T06:56:01.109Z,102316.55
2019-03-28T06:58:33.424Z,102324.08
2019-03-28T07:01:06.638Z,102324.83
2019-03-28T07:03:38.878Z,102331.27
2019-03-28T07:06:11.093Z,102332.89
2019-03-28T07:08:44.215Z,102340.06
2019-03-28T07:11:16.648Z,102333.84
2019-03-28T07:13:49.966Z,102341.95
2019-03-28T07:16:22.065Z,102344.17
2019-03-28T07:18:54.327Z,102340.94
2019-03-28T07:21:26.775Z,102344.42
2019-03-28T07:23:58.985Z,102348.87
2019-03-28T07:26:31.197Z,102345.83
2019-03-28T07:29:03.341Z,102357.38
2019-03-28T07:31:35.766Z,102352.36
2019-03-28T07:34:07.975Z,102361.33
2019-03-28T07:36:40.189Z,102360.39
2019-03-28T07:39:13.412Z,102358.64
2019-03-28T07:41:45.711Z,102358.96
2019-03-28T07:44:17.932Z,102363.13
2019-03-28T07:46:50.377Z,102362.05
2019-03-28T07:49:22.716Z,102358.40
2019-03-28T07:51:54.878Z,102359.09
2019-03-28T07:54:27.030Z,102367.88
2019-03-28T07:56:59.188Z,102372.89
2019-03-28T07:59:31.325Z,102368.27
2019-03-28T08:02:03.546Z,102364.91
2019-03-28T08:04:35.755Z,102370.45
2019-03-28T08:07:08.012Z,102379.62
2019-03-28T08:09:40.168Z,102378.67
2019-03-28T08:12:22.375Z,102372.34
2019-03-28T08:14:46.226Z,102372.03
2019-03-28T08:17:18.456Z,102374.62
2019-03-28T08:19:50.594Z,102373.28
2019-03-28T08:22:22.773Z,102374.33
2019-03-28T08:24:55.094Z,102376.66
2019-03-28T08:27:27.362Z,102374.20
2019-03-28T08:29:59.596Z,102375.78
2019-03-28T08:32:31.843Z,102370.14
2019-03-28T08:35:03.987Z,102370.30
2019-03-28T08:37:36.818Z,102371.09
2019-03-28T08:40:09.172Z,102374.59
2019-03-28T08:42:41.393Z,102374.97
2019-03-28T08:45:13.561Z,102377.27
2019-03-28T08:47:45.707Z,102369.58
2019-03-28T08:50:17.940Z,102376.08
2019-03-28T08:52:50.263Z,102382.44
2019-03-28T08:55:22.531Z,102381.09
2019-03-28T08:57:54.841Z,102384.03
2019-03-28T09:00:35.212Z,102385.67
2019-03-28T09:03:01.951Z,102391.14
2019-03-28T09:05:34.184Z,102396.78
2019-03-28T09:08:06.356Z,102398.03
2019-03-28T09:10:38.525Z,102404.53
2019-03-28T09:13:10.787Z,102401.66
2019-03-28T09:15:44.253Z,102403.71
2019-03-28T09:18:16.522Z,102399.87
2019-03-28T09:20:48.660Z,102399.87
2019-03-28T09:23:21.457Z,102402.47
2019-03-28T09:25:53.941Z,102398.91
2019-03-28T09:28:26.100Z,102393.55
2019-03-28T09:30:58.265Z,102389.94
2019-03-28T09:33:30.421Z,102389.09
2019-03-28T09:36:02.578Z,102382.86
2019-03-28T09:38:35.690Z,102391.95
2019-03-28T09:41:07.957Z,102385.84
2019-03-28T09:43:54.217Z,102397.00
2019-03-28T09:46:14.586Z,102397.63
2019-03-28T09:48:46.942Z,102393.33
2019-03-28T09:51:19.168Z,102399.24
2019-03-28T09:53:51.450Z,102399.19
2019-03-28T09:56:23.926Z,102406.21
2019-03-28T09:58:56.074Z,102395.98
2019-03-28T10:01:28.326Z,102400.20
2019-03-28T10:04:01.561Z,102403.84
2019-03-28T10:06:33.782Z,102414.71
2019-03-28T10:09:07.284Z,102417.47
2019-03-28T10:11:39.588Z,102421.85
2019-03-28T10:14:12.815Z,102422.25
2019-03-28T10:16:44.963Z,102416.33
2019-03-28T10:19:17.190Z,102419.93
2019-03-28T10:21:49.346Z,102422.16
2019-03-28T10:24:21.579Z,102419.34
2019-03-28T10:26:54.481Z,102420.51
2019-03-28T10:29:26.960Z,102421.16
2019-03-28T10:31:59.125Z,102421.27
2019-03-28T10:34:31.299Z,102419.48
2019-03-28T10:37:04.874Z,102426.03
2019-03-28T10:39:37.257Z,102422.40
2019-03-28T10:42:12.180Z,102415.33
2019-03-28T10:44:44.348Z,102417.77
2019-03-28T10:47:17.468Z,102412.01
2019-03-28T10:49:49.688Z,102416.59
2019-03-28T10:52:21.828Z,102412.78
2019-03-28T10:54:54.484Z,102417.63
2019-03-28T10:57:31.334Z,102419.95
2019-03-28T11:00:00.876Z,102419.36
2019-03-28T11:02:33.102Z,102415.80
2019-03-28T11:05:05.622Z,102428.13
2019-03-28T11:07:37.844Z,102428.08
2019-03-28T11:10:10.381Z,102432.23
2019-03-28T11:12:42.597Z,102434.98
2019-03-28T11:15:14.816Z,102439.05
2019-03-28T11:17:47.619Z,102435.84
2019-03-28T11:20:20.749Z,102434.00
2019-03-28T11:22:53.277Z,102439.58
2019-03-28T11:25:25.429Z,102436.98
2019-03-28T11:27:57.611Z,102446.38
2019-03-28T11:30:29.769Z,102445.84
2019-03-28T11:33:01.990Z,102452.06
2019-03-28T11:35:34.147Z,102443.48
2019-03-28T11:38:09.453Z,102432.58
2019-03-28T11:40:42.922Z,102432.58
2019-03-28T11:43:14.428Z,102442.25
2019-03-28T11:45:46.705Z,102434.53
2019-03-28T11:48:18.859Z,102429.40
2019-03-28T11:50:51.453Z,102430.78
2019-03-28T11:53:23.967Z,102427.48
2019-03-28T11:55:56.179Z,102432.52
2019-03-28T11:58:28.401Z,102437.13
2019-03-28T12:01:00.833Z,102437.61
2019-03-28T12:03:33.050Z,102439.35
2019-03-28T12:06:05.203Z,102434.84
2019-03-28T12:08:37.425Z,102440.55
2019-03-28T12:11:09.577Z,102441.01
2019-03-28T12:13:44.951Z,102445.58
2019-03-28T12:16:15.645Z,102433.39
2019-03-28T12:18:47.803Z,102429.44
2019-03-28T12:21:20.259Z,102440.77
2019-03-28T12:23:52.521Z,102433.41
2019-03-28T12:26:24.668Z,102433.41
2019-03-28T12:28:57.658Z,102436.70
2019-03-28T12:31:33.073Z,102443.06
2019-03-28T12:34:03.805Z,102443.06
2019-03-28T12:36:36.026Z,102451.53
2019-03-28T12:39:08.655Z,102454.70
2019-03-28T12:41:40.873Z,102461.84
2019-03-28T12:44:13.093Z,102461.00
2019-03-28T12:46:46.229Z,102460.45
2019-03-28T12:49:18.473Z,102460.64
2019-03-28T12:51:50.624Z,102464.59
2019-03-28T12:54:22.763Z,102459.91
2019-03-28T12:56:58.029Z,102469.48
2019-03-28T12:59:28.869Z,102470.08
2019-03-28T13:02:01.041Z,102469.45
2019-03-28T13:04:33.253Z,102472.66
2019-03-28T13:07:05.412Z,102465.47
2019-03-28T13:09:37.577Z,102464.52
2019-03-28T13:12:11.458Z,102473.73
2019-03-28T13:14:43.912Z,102481.09
2019-03-28T13:17:16.043Z,102480.33
2019-03-28T13:19:48.207Z,102478.89
2019-03-28T13:22:20.359Z,102483.33
2019-03-28T13:24:52.502Z,102486.86
2019-03-28T13:27:24.728Z,102478.56
2019-03-28T13:29:56.980Z,102486.11
2019-03-28T13:32:41.125Z,102487.27
2019-03-28T13:35:02.982Z,102483.42
2019-03-28T13:37:35.189Z,102480.35
2019-03-28T13:40:07.427Z,102480.63
2019-03-28T13:42:39.571Z,102487.27
2019-03-28T13:45:11.734Z,102483.47
2019-03-28T13:47:43.972Z,102476.50
2019-03-28T13:50:18.392Z,102468.77
2019-03-28T13:52:50.556Z,102465.78
2019-03-28T13:55:25.117Z,102463.58
2019-03-28T13:57:57.654Z,102462.88
2019-03-28T14:00:33.934Z,102465.91
2019-03-28T14:03:06.238Z,102462.98
2019-03-28T14:05:38.456Z,102468.20
2019-03-28T14:08:11.291Z,102459.89
2019-03-28T14:10:43.526Z,102461.63
2019-03-28T14:13:15.734Z,102456.91
2019-03-28T14:15:47.871Z,102461.83
2019-03-28T14:18:20.311Z,102461.83
2019-03-28T14:20:52.545Z,102473.22
2019-03-28T14:23:24.715Z,102469.44
2019-03-28T14:25:56.988Z,102480.35
2019-03-28T14:28:29.214Z,102478.41
2019-03-28T14:31:01.374Z,102486.11
2019-03-28T14:33:33.612Z,102486.93
2019-03-28T14:36:05.832Z,102490.92
2019-03-28T14:38:37.983Z,102488.11
2019-03-28T14:41:10.213Z,102485.72
2019-03-28T14:43:42.386Z,102488.89
2019-03-28T14:46:14.550Z,102487.43
2019-03-28T14:48:46.749Z,102485.36
2019-03-28T14:51:18.970Z,102485.58
2019-03-28T14:53:51.563Z,102486.11
2019-03-28T14:56:24.421Z,102480.87
2019-03-28T14:58:56.971Z,102483.69
2019-03-28T15:01:29.141Z,102479.95
2019-03-28T15:04:01.365Z,102480.34
2019-03-28T15:06:33.604Z,102473.80
2019-03-28T15:09:08.479Z,102478.53
2019-03-28T15:11:40.707Z,102480.56
2019-03-28T15:14:12.883Z,102489.98
2019-03-28T15:16:45.040Z,102492.19
2019-03-28T15:19:17.198Z,102487.17
2019-03-28T15:21:50.525Z,102488.98
2019-03-28T15:24:22.765Z,102484.30
2019-03-28T15:26:55.322Z,102491.45
2019-03-28T15:29:27.531Z,102491.45
2019-03-28T15:31:59.780Z,102493.52
2019-03-28T15:34:32.050Z,102497.17
2019-03-28T15:37:04.293Z,102504.24
2019-03-28T15:39:40.712Z,102495.56
2019-03-28T15:42:13.101Z,102488.06
2019-03-28T15:44:45.345Z,102495.29
2019-03-28T15:47:17.806Z,102495.22
2019-03-28T15:49:51.149Z,102498.25
2019-03-28T15:52:23.537Z,102492.16
2019-03-28T15:54:55.786Z,102493.77
2019-03-28T15:57:27.978Z,102495.07
2019-03-28T16:00:00.352Z,102498.03
2019-03-28T16:02:32.617Z,102497.98
2019-03-28T16:05:04.881Z,102497.42
2019-03-28T16:07:37.106Z,102503.70
2019-03-28T16:10:10.547Z,102501.39
2019-03-28T16:12:42.773Z,102503.02
2019-03-28T16:15:15.023Z,102503.42
2019-03-28T16:17:47.668Z,102504.95
2019-03-28T16:20:20.582Z,102496.35
2019-03-28T16:22:52.822Z,102501.53
2019-03-28T16:25:25.037Z,102516.25
2019-03-28T16:27:57.249Z,102516.25
2019-03-28T16:30:36.876Z,102509.53
2019-03-28T16:33:09.385Z,102514.41
2019-03-28T16:35:41.638Z,102514.80
2019-03-28T16:38:13.881Z,102516.89
2019-03-28T16:40:46.120Z,102516.68
2019-03-28T16:43:18.305Z,102504.28
2019-03-28T16:45:50.581Z,102511.86
2019-03-28T16:48:22.834Z,102512.92
2019-03-28T16:50:56.063Z,102524.35
2019-03-28T16:53:28.314Z,102525.98
2019-03-28T16:56:00.474Z,102530.58
2019-03-28T16:58:32.635Z,102530.20
2019-03-28T17:01:04.967Z,102537.77
2019-03-28T17:03:37.195Z,102538.17
2019-03-28T17:06:09.455Z,102543.90
2019-03-28T17:08:41.683Z,102543.57
2019-03-28T17:11:13.870Z,102537.94
2019-03-28T17:13:46.510Z,102538.66
2019-03-28T17:16:18.693Z,102534.38
2019-03-28T17:18:50.942Z,102539.62
2019-03-28T17:21:23.576Z,102542.16
2019-03-28T17:23:55.832Z,102539.78
2019-03-28T17:26:28.007Z,102546.44
2019-03-28T17:29:00.185Z,102541.73
2019-03-28T17:31:32.464Z,102545.35
2019-03-28T17:34:04.650Z,102550.48
2019-03-28T17:36:36.831Z,102547.33
2019-03-28T17:39:09.174Z,102553.29
2019-03-28T17:41:41.428Z,102551.61
2019-03-28T17:44:14.699Z,102559.48
2019-03-28T17:46:47.020Z,102566.98
2019-03-28T17:49:19.185Z,102567.56
2019-03-28T17:51:51.759Z,102570.82
2019-03-28T17:54:24.454Z,102574.08
2019-03-28T17:56:56.623Z,102568.58
2019-03-28T17:59:28.910Z,102573.98
2019-03-28T18:02:01.138Z,102573.72
2019-03-28T18:04:33.373Z,102578.56
2019-03-28T18:07:05.614Z,102580.02
2019-03-28T18:09:38.002Z,102582.08
2019-03-28T18:12:10.288Z,102581.45
2019-03-28T18:14:42.428Z,102588.59
2019-03-28T18:17:14.591Z,102590.59
2019-03-28T18:19:46.748Z,102595.20
2019-03-28T18:22:18.910Z,102592.57
2019-03-28T18:24:51.729Z,102595.83
2019-03-28T18:27:24.498Z,102598.65
2019-03-28T18:29:56.946Z,102597.02
2019-03-28T18:32:29.197Z,102600.89
2019-03-28T18:35:05.540Z,102603.74
2019-03-28T18:37:35.512Z,102600.16
2019-03-28T18:40:07.752Z,102608.09
2019-03-28T18:42:39.987Z,102609.98
2019-03-28T18:45:12.807Z,102607.34
2019-03-28T18:47:45.129Z,102607.04
2019-03-28T18:50:17.315Z,102604.15
2019-03-28T18:52:49.556Z,102607.03
2019-03-28T18:55:21.795Z,102609.13
2019-03-28T18:57:54.488Z,102605.78
2019-03-28T19:00:26.747Z,102617.49
2019-03-28T19:02:58.917Z,102614.86
2019-03-28T19:05:31.135Z,102614.52
2019-03-28T19:08:04.333Z,102609.67
2019-03-28T19:10:37.734Z,102616.09
2019-03-28T19:13:10.081Z,102624.32
2019-03-28T19:15:42.255Z,102621.10
2019-03-28T19:18:14.510Z,102624.81
2019-03-28T19:20:46.836Z,102622.80
2019-03-28T19:23:19.377Z,102626.87
2019-03-28T19:25:51.697Z,102631.13
2019-03-28T19:28:29.156Z,102629.83
2019-03-28T19:30:57.810Z,102628.61
2019-03-28T19:33:30.076Z,102629.78
2019-03-28T19:36:03.317Z,102624.32
2019-03-28T19:38:35.786Z,102621.98
2019-03-28T19:41:08.881Z,102614.80
2019-03-28T19:43:41.051Z,102618.17
2019-03-28T19:46:13.404Z,102623.73
2019-03-28T19:48:45.779Z,102624.77
2019-03-28T19:51:18.247Z,102629.94
2019-03-28T19:53:51.271Z,102620.73
2019-03-28T19:56:23.857Z,102627.89
2019-03-28T19:58:59.213Z,102626.47
2019-03-28T20:01:31.946Z,102631.93
2019-03-28T20:04:04.595Z,102627.80
2019-03-28T20:06:36.879Z,102624.34
2019-03-28T20:09:16.225Z,102625.81
2019-03-28T20:11:43.307Z,102620.58
2019-03-28T20:14:16.049Z,102620.72
2019-03-28T20:16:48.309Z,102622.91
2019-03-28T20:19:20.590Z,102628.49
2019-03-28T20:21:52.763Z,102626.16
2019-03-28T20:24:25.166Z,102630.30
2019-03-28T20:26:57.571Z,102624.48
2019-03-28T20:29:29.758Z,102631.40
2019-03-28T20:32:01.999Z,102633.16
2019-03-28T20:34:34.326Z,102637.84
2019-03-28T20:37:06.566Z,102636.62
2019-03-28T20:39:38.812Z,102634.05
2019-03-28T20:42:11.051Z,102627.89
2019-03-28T20:44:43.302Z,102637.78
2019-03-28T20:47:15.539Z,102637.72
2019-03-28T20:49:47.834Z,102637.14
2019-03-28T20:52:20.355Z,102637.09
2019-03-28T20:54:53.015Z,102635.86
2019-03-28T20:57:25.472Z,102639.48
2019-03-28T20:59:57.695Z,102646.89
2019-03-28T21:02:29.931Z,102649.15
2019-03-28T21:05:03.732Z,102648.09
2019-03-28T21:07:36.765Z,102655.03
2019-03-28T21:10:10.734Z,102651.08
2019-03-28T21:12:43.810Z,102653.24
2019-03-28T21:15:16.343Z,102660.94
2019-03-28T21:17:49.130Z,102650.87
2019-03-28T21:20:22.069Z,102655.14
2019-03-28T21:22:54.634Z,102656.85
2019-03-28T21:25:29.572Z,102655.67
2019-03-28T21:28:00.861Z,102651.64
2019-03-28T21:30:46.345Z,102653.73
2019-03-28T21:33:07.012Z,102655.69
2019-03-28T21:35:39.435Z,102658.70
2019-03-28T21:38:11.640Z,102655.47
2019-03-28T21:40:43.798Z,102661.14
2019-03-28T21:43:16.029Z,102666.16
2019-03-28T21:45:48.321Z,102668.60
2019-03-28T21:48:20.455Z,102662.64
2019-03-28T21:50:53.221Z,102660.20
2019-03-28T21:53:26.127Z,102664.89
2019-03-28T21:55:59.243Z,102670.55
2019-03-28T21:58:31.497Z,102666.16
2019-03-28T22:01:03.662Z,102668.80
2019-03-28T22:03:35.882Z,102673.25
2019-03-28T22:06:09.010Z,102664.08
2019-03-28T22:08:41.154Z,102667.45
2019-03-28T22:11:13.711Z,102665.29
2019-03-28T22:13:46.038Z,102657.50
2019-03-28T22:16:18.210Z,102650.90
2019-03-28T22:18:50.358Z,102657.91
2019-03-28T22:21:23.016Z,102661.89
2019-03-28T22:23:55.536Z,102662.02
2019-03-28T22:26:27.717Z,102658.39
2019-03-28T22:28:59.906Z,102650.97
2019-03-28T22:31:32.452Z,102654.06
2019-03-28T22:34:04.627Z,102641.02
2019-03-28T22:36:36.778Z,102640.37
2019-03-28T22:39:09.208Z,102652.02
2019-03-28T22:41:41.430Z,102647.03
2019-03-28T22:44:14.363Z,102651.13
2019-03-28T22:46:46.718Z,102647.50
2019-03-28T22:49:18.877Z,102645.22
2019-03-28T22:51:51.104Z,102643.73
2019-03-28T22:54:23.254Z,102645.84
2019-03-28T22:56:55.729Z,102652.77
2019-03-28T22:59:27.878Z,102652.93
2019-03-28T23:02:00.120Z,102656.84
2019-03-28T23:04:32.440Z,102655.22
2019-03-28T23:07:10.802Z,102658.13
2019-03-28T23:09:38.578Z,102662.44
2019-03-28T23:12:10.736Z,102652.48
2019-03-28T23:14:42.970Z,102653.16
2019-03-28T23:17:15.124Z,102651.27
2019-03-28T23:19:47.394Z,102648.17
2019-03-28T23:22:19.556Z,102647.55
2019-03-28T23:24:53.038Z,102647.31
2019-03-28T23:27:26.933Z,102646.42
2019-03-28T23:29:59.250Z,102647.36
2019-03-28T23:32:31.493Z,102651.67
2019-03-28T23:35:03.710Z,102649.11
2019-03-28T23:37:35.953Z,102650.73
2019-03-28T23:40:08.337Z,102651.94
2019-03-28T23:42:40.581Z,102648.98
2019-03-28T23:45:13.044Z,102645.27
2019-03-28T23:47:45.360Z,102647.50
2019-03-28T23:50:17.530Z,102647.83
2019-03-28T23:52:49.853Z,102636.12
2019-03-28T23:55:22.086Z,102640.84
2019-03-28T23:57:55.187Z,102633.95
